sensor_id;sensor_type;location;lat;lon;timestamp;P1;durP1;ratioP1;P2;durP2;ratioP2
22476;SDS011;11405;51.698;-0.292;2022-07-03T00:01:08;0.60;;;0.60;;
22476;SDS011;11405;51.698;-0.292;2022-07-03T00:03:34;2.75;;;0.75;;
22476;SDS011;11405;51.698;-0.292;2022-07-03T00:06:00;2.15;;;0.98;;
22476;SDS011;11405;51.698;-0.292;2022-07-03T00:08:27;3.92;;;0.85;;
22476;SDS011;11405;51.698;-0.292;2022-07-03T00:10:53;0.90;;;0.60;;
22476;SDS011;11405;51.698;-0.292;2022-07-03T00:13:19;0.82;;;0.63;;
22476;SDS011;11405;51.698;-0.292;2022-07-03T00:15:45;3.10;;;0.65;;
22476;SDS011;11405;51.698;-0.292;2022-07-03T00:18:11;4.47;;;0.80;;
22476;SDS011;11405;51.698;-0.292;2022-07-03T00:20:47;0.85;;;0.60;;
22476;SDS011;11405;51.698;-0.292;2022-07-03T00:23:17;2.65;;;0.90;;
22476;SDS011;11405;51.698;-0.292;2022-07-03T00:25:44;2.78;;;1.02;;
22476;SDS011;11405;51.698;-0.292;2022-07-03T00:28:10;3.15;;;0.95;;
22476;SDS011;11405;51.698;-0.292;2022-07-03T00:30:36;1.67;;;0.73;;
22476;SDS011;11405;51.698;-0.292;2022-07-03T00:33:02;3.72;;;1.10;;
22476;SDS011;11405;51.698;-0.292;2022-07-03T00:35:33;1.42;;;0.98;;
22476;SDS011;11405;51.698;-0.292;2022-07-03T00:38:00;1.52;;;0.75;;
22476;SDS011;11405;51.698;-0.292;2022-07-03T00:40:27;0.95;;;0.70;;
22476;SDS011;11405;51.698;-0.292;2022-07-03T00:42:53;2.28;;;0.90;;
22476;SDS011;11405;51.698;-0.292;2022-07-03T00:45:19;2.95;;;0.75;;
22476;SDS011;11405;51.698;-0.292;2022-07-03T00:47:46;3.60;;;1.10;;
22476;SDS011;11405;51.698;-0.292;2022-07-03T00:50:12;1.20;;;0.98;;
22476;SDS011;11405;51.698;-0.292;2022-07-03T00:52:38;2.25;;;0.50;;
22476;SDS011;11405;51.698;-0.292;2022-07-03T00:57:30;1.17;;;0.80;;
22476;SDS011;11405;51.698;-0.292;2022-07-03T00:59:56;6.35;;;1.00;;
22476;SDS011;11405;51.698;-0.292;2022-07-03T01:04:55;3.85;;;1.10;;
22476;SDS011;11405;51.698;-0.292;2022-07-03T01:07:29;2.05;;;0.85;;
22476;SDS011;11405;51.698;-0.292;2022-07-03T01:15:05;5.13;;;0.70;;
22476;SDS011;11405;51.698;-0.292;2022-07-03T01:17:34;3.70;;;0.95;;
22476;SDS011;11405;51.698;-0.292;2022-07-03T01:20:02;3.67;;;0.60;;
22476;SDS011;11405;51.698;-0.292;2022-07-03T01:28:13;3.03;;;0.63;;
22476;SDS011;11405;51.698;-0.292;2022-07-03T01:30:42;7.22;;;1.00;;
22476;SDS011;11405;51.698;-0.292;2022-07-03T01:33:10;5.03;;;0.80;;
22476;SDS011;11405;51.698;-0.292;2022-07-03T01:35:41;2.83;;;0.70;;
22476;SDS011;11405;51.698;-0.292;2022-07-03T01:38:08;3.53;;;0.80;;
22476;SDS011;11405;51.698;-0.292;2022-07-03T01:40:36;2.47;;;0.63;;
22476;SDS011;11405;51.698;-0.292;2022-07-03T01:43:03;0.60;;;0.55;;
22476;SDS011;11405;51.698;-0.292;2022-07-03T01:45:30;0.70;;;0.60;;
22476;SDS011;11405;51.698;-0.292;2022-07-03T01:47:56;1.85;;;0.82;;
22476;SDS011;11405;51.698;-0.292;2022-07-03T01:52:49;2.88;;;0.68;;
22476;SDS011;11405;51.698;-0.292;2022-07-03T01:55:16;6.18;;;0.90;;
22476;SDS011;11405;51.698;-0.292;2022-07-03T01:57:43;2.15;;;0.90;;
22476;SDS011;11405;51.698;-0.292;2022-07-03T02:00:10;2.50;;;0.70;;
22476;SDS011;11405;51.698;-0.292;2022-07-03T02:02:39;1.75;;;0.60;;
22476;SDS011;11405;51.698;-0.292;2022-07-03T02:05:08;8.07;;;1.10;;
22476;SDS011;11405;51.698;-0.292;2022-07-03T02:07:44;2.10;;;0.90;;
22476;SDS011;11405;51.698;-0.292;2022-07-03T02:10:15;6.78;;;0.93;;
22476;SDS011;11405;51.698;-0.292;2022-07-03T02:15:08;2.88;;;0.95;;
22476;SDS011;11405;51.698;-0.292;2022-07-03T02:17:53;2.17;;;0.98;;
22476;SDS011;11405;51.698;-0.292;2022-07-03T02:20:20;7.32;;;1.02;;
22476;SDS011;11405;51.698;-0.292;2022-07-03T02:22:58;1.95;;;1.13;;
22476;SDS011;11405;51.698;-0.292;2022-07-03T02:25:26;3.63;;;0.80;;
22476;SDS011;11405;51.698;-0.292;2022-07-03T02:30:19;2.87;;;0.73;;
22476;SDS011;11405;51.698;-0.292;2022-07-03T02:32:48;1.00;;;0.60;;
22476;SDS011;11405;51.698;-0.292;2022-07-03T02:35:21;4.30;;;1.10;;
22476;SDS011;11405;51.698;-0.292;2022-07-03T02:37:53;12.50;;;1.15;;
22476;SDS011;11405;51.698;-0.292;2022-07-03T02:40:28;3.53;;;0.80;;
22476;SDS011;11405;51.698;-0.292;2022-07-03T02:43:11;3.40;;;0.95;;
22476;SDS011;11405;51.698;-0.292;2022-07-03T02:45:44;4.32;;;0.70;;
22476;SDS011;11405;51.698;-0.292;2022-07-03T02:48:18;3.90;;;0.88;;
22476;SDS011;11405;51.698;-0.292;2022-07-03T02:50:47;4.03;;;1.05;;
22476;SDS011;11405;51.698;-0.292;2022-07-03T02:54:02;6.38;;;1.25;;
22476;SDS011;11405;51.698;-0.292;2022-07-03T02:56:07;3.03;;;1.00;;
22476;SDS011;11405;51.698;-0.292;2022-07-03T03:01:34;8.15;;;1.10;;
22476;SDS011;11405;51.698;-0.292;2022-07-03T03:06:33;2.75;;;0.90;;
22476;SDS011;11405;51.698;-0.292;2022-07-03T03:09:02;7.10;;;1.25;;
22476;SDS011;11405;51.698;-0.292;2022-07-03T03:13:55;2.50;;;0.93;;
22476;SDS011;11405;51.698;-0.292;2022-07-03T03:16:24;6.70;;;1.73;;
22476;SDS011;11405;51.698;-0.292;2022-07-03T03:18:51;1.88;;;0.88;;
22476;SDS011;11405;51.698;-0.292;2022-07-03T03:21:18;2.90;;;1.00;;
22476;SDS011;11405;51.698;-0.292;2022-07-03T03:23:45;6.47;;;1.10;;
22476;SDS011;11405;51.698;-0.292;2022-07-03T03:26:14;3.90;;;1.27;;
22476;SDS011;11405;51.698;-0.292;2022-07-03T03:28:40;0.85;;;0.85;;
22476;SDS011;11405;51.698;-0.292;2022-07-03T03:31:07;8.23;;;1.05;;
22476;SDS011;11405;51.698;-0.292;2022-07-03T03:33:44;2.40;;;0.95;;
22476;SDS011;11405;51.698;-0.292;2022-07-03T03:36:11;3.10;;;1.10;;
22476;SDS011;11405;51.698;-0.292;2022-07-03T03:38:37;5.10;;;1.00;;
22476;SDS011;11405;51.698;-0.292;2022-07-03T03:41:05;4.50;;;1.10;;
22476;SDS011;11405;51.698;-0.292;2022-07-03T03:43:31;7.28;;;1.13;;
22476;SDS011;11405;51.698;-0.292;2022-07-03T03:45:58;3.92;;;1.00;;
22476;SDS011;11405;51.698;-0.292;2022-07-03T03:48:27;4.18;;;0.93;;
22476;SDS011;11405;51.698;-0.292;2022-07-03T03:50:56;4.15;;;1.02;;
22476;SDS011;11405;51.698;-0.292;2022-07-03T03:53:23;6.13;;;1.02;;
22476;SDS011;11405;51.698;-0.292;2022-07-03T03:58:32;8.93;;;1.20;;
22476;SDS011;11405;51.698;-0.292;2022-07-03T04:00:59;1.95;;;0.88;;
22476;SDS011;11405;51.698;-0.292;2022-07-03T04:05:51;1.08;;;0.95;;
22476;SDS011;11405;51.698;-0.292;2022-07-03T04:08:17;2.58;;;1.02;;
22476;SDS011;11405;51.698;-0.292;2022-07-03T04:13:10;3.13;;;1.10;;
22476;SDS011;11405;51.698;-0.292;2022-07-03T04:15:36;8.70;;;1.60;;
22476;SDS011;11405;51.698;-0.292;2022-07-03T04:18:02;4.90;;;1.25;;
22476;SDS011;11405;51.698;-0.292;2022-07-03T04:20:28;3.13;;;0.82;;
22476;SDS011;11405;51.698;-0.292;2022-07-03T04:22:55;2.53;;;1.20;;
22476;SDS011;11405;51.698;-0.292;2022-07-03T04:25:21;2.65;;;1.15;;
22476;SDS011;11405;51.698;-0.292;2022-07-03T04:27:47;5.82;;;1.13;;
22476;SDS011;11405;51.698;-0.292;2022-07-03T04:30:13;17.02;;;1.45;;
22476;SDS011;11405;51.698;-0.292;2022-07-03T04:32:39;6.45;;;1.58;;
22476;SDS011;11405;51.698;-0.292;2022-07-03T04:35:06;4.20;;;1.13;;
22476;SDS011;11405;51.698;-0.292;2022-07-03T04:37:32;3.65;;;1.00;;
22476;SDS011;11405;51.698;-0.292;2022-07-03T04:39:58;5.70;;;1.05;;
22476;SDS011;11405;51.698;-0.292;2022-07-03T04:42:24;5.93;;;1.80;;
22476;SDS011;11405;51.698;-0.292;2022-07-03T04:44:50;6.72;;;1.17;;
22476;SDS011;11405;51.698;-0.292;2022-07-03T04:47:16;2.65;;;1.05;;
22476;SDS011;11405;51.698;-0.292;2022-07-03T04:49:42;4.57;;;1.20;;
22476;SDS011;11405;51.698;-0.292;2022-07-03T04:52:08;4.15;;;1.23;;
22476;SDS011;11405;51.698;-0.292;2022-07-03T04:54:34;10.88;;;1.40;;
22476;SDS011;11405;51.698;-0.292;2022-07-03T04:57:00;3.13;;;0.95;;
22476;SDS011;11405;51.698;-0.292;2022-07-03T04:59:26;5.07;;;0.85;;
22476;SDS011;11405;51.698;-0.292;2022-07-03T05:01:52;3.00;;;0.87;;
22476;SDS011;11405;51.698;-0.292;2022-07-03T05:04:18;4.65;;;1.20;;
22476;SDS011;11405;51.698;-0.292;2022-07-03T05:06:44;2.90;;;1.20;;
22476;SDS011;11405;51.698;-0.292;2022-07-03T05:09:10;5.55;;;1.35;;
22476;SDS011;11405;51.698;-0.292;2022-07-03T05:11:36;3.28;;;1.00;;
22476;SDS011;11405;51.698;-0.292;2022-07-03T05:14:03;6.80;;;1.15;;
22476;SDS011;11405;51.698;-0.292;2022-07-03T05:16:29;2.15;;;0.90;;
22476;SDS011;11405;51.698;-0.292;2022-07-03T05:18:56;3.88;;;1.10;;
22476;SDS011;11405;51.698;-0.292;2022-07-03T05:21:22;3.15;;;0.90;;
22476;SDS011;11405;51.698;-0.292;2022-07-03T05:23:48;1.92;;;0.88;;
22476;SDS011;11405;51.698;-0.292;2022-07-03T05:26:14;5.00;;;1.10;;
22476;SDS011;11405;51.698;-0.292;2022-07-03T05:28:40;5.40;;;0.93;;
22476;SDS011;11405;51.698;-0.292;2022-07-03T05:31:06;3.35;;;0.80;;
22476;SDS011;11405;51.698;-0.292;2022-07-03T05:33:32;4.15;;;0.90;;
22476;SDS011;11405;51.698;-0.292;2022-07-03T05:35:59;2.33;;;0.57;;
22476;SDS011;11405;51.698;-0.292;2022-07-03T05:38:25;2.03;;;0.60;;
22476;SDS011;11405;51.698;-0.292;2022-07-03T05:41:10;2.00;;;0.82;;
22476;SDS011;11405;51.698;-0.292;2022-07-03T05:43:36;2.25;;;0.82;;
22476;SDS011;11405;51.698;-0.292;2022-07-03T05:46:02;2.35;;;0.68;;
22476;SDS011;11405;51.698;-0.292;2022-07-03T05:48:29;1.65;;;0.80;;
22476;SDS011;11405;51.698;-0.292;2022-07-03T05:50:55;6.20;;;0.88;;
22476;SDS011;11405;51.698;-0.292;2022-07-03T05:53:21;2.58;;;0.80;;
22476;SDS011;11405;51.698;-0.292;2022-07-03T05:55:47;3.80;;;0.32;;
22476;SDS011;11405;51.698;-0.292;2022-07-03T05:58:13;6.53;;;0.90;;
22476;SDS011;11405;51.698;-0.292;2022-07-03T06:00:39;5.38;;;0.70;;
22476;SDS011;11405;51.698;-0.292;2022-07-03T06:03:06;4.07;;;0.68;;
22476;SDS011;11405;51.698;-0.292;2022-07-03T06:05:32;3.70;;;0.70;;
22476;SDS011;11405;51.698;-0.292;2022-07-03T06:07:58;0.95;;;0.50;;
22476;SDS011;11405;51.698;-0.292;2022-07-03T06:10:25;4.88;;;1.08;;
22476;SDS011;11405;51.698;-0.292;2022-07-03T06:12:51;2.72;;;0.65;;
22476;SDS011;11405;51.698;-0.292;2022-07-03T06:15:17;3.50;;;0.60;;
22476;SDS011;11405;51.698;-0.292;2022-07-03T06:17:43;4.95;;;0.88;;
22476;SDS011;11405;51.698;-0.292;2022-07-03T06:20:09;6.53;;;0.70;;
22476;SDS011;11405;51.698;-0.292;2022-07-03T06:22:35;2.47;;;0.50;;
22476;SDS011;11405;51.698;-0.292;2022-07-03T06:25:02;4.50;;;0.60;;
22476;SDS011;11405;51.698;-0.292;2022-07-03T06:27:28;4.53;;;0.50;;
22476;SDS011;11405;51.698;-0.292;2022-07-03T06:29:54;5.45;;;0.98;;
22476;SDS011;11405;51.698;-0.292;2022-07-03T06:32:20;2.28;;;0.55;;
22476;SDS011;11405;51.698;-0.292;2022-07-03T06:34:46;2.58;;;0.63;;
22476;SDS011;11405;51.698;-0.292;2022-07-03T06:37:12;5.18;;;0.75;;
22476;SDS011;11405;51.698;-0.292;2022-07-03T06:39:38;3.15;;;0.63;;
22476;SDS011;11405;51.698;-0.292;2022-07-03T06:42:04;1.85;;;0.40;;
22476;SDS011;11405;51.698;-0.292;2022-07-03T06:44:30;5.80;;;0.80;;
22476;SDS011;11405;51.698;-0.292;2022-07-03T06:46:57;1.88;;;0.80;;
22476;SDS011;11405;51.698;-0.292;2022-07-03T06:49:23;3.17;;;0.70;;
22476;SDS011;11405;51.698;-0.292;2022-07-03T06:51:49;3.47;;;0.77;;
22476;SDS011;11405;51.698;-0.292;2022-07-03T06:54:15;8.10;;;0.98;;
22476;SDS011;11405;51.698;-0.292;2022-07-03T06:56:41;6.72;;;0.65;;
22476;SDS011;11405;51.698;-0.292;2022-07-03T06:59:07;2.15;;;0.57;;
22476;SDS011;11405;51.698;-0.292;2022-07-03T07:01:33;3.83;;;0.65;;
22476;SDS011;11405;51.698;-0.292;2022-07-03T07:03:59;6.72;;;0.75;;
22476;SDS011;11405;51.698;-0.292;2022-07-03T07:06:27;6.22;;;0.70;;
22476;SDS011;11405;51.698;-0.292;2022-07-03T07:08:53;1.33;;;0.52;;
22476;SDS011;11405;51.698;-0.292;2022-07-03T07:11:20;4.68;;;0.80;;
22476;SDS011;11405;51.698;-0.292;2022-07-03T07:13:46;3.60;;;1.05;;
22476;SDS011;11405;51.698;-0.292;2022-07-03T07:16:12;4.93;;;0.60;;
22476;SDS011;11405;51.698;-0.292;2022-07-03T07:18:41;4.47;;;0.73;;
22476;SDS011;11405;51.698;-0.292;2022-07-03T07:21:08;3.00;;;0.82;;
22476;SDS011;11405;51.698;-0.292;2022-07-03T07:23:34;2.20;;;0.60;;
22476;SDS011;11405;51.698;-0.292;2022-07-03T07:26:00;3.92;;;0.90;;
22476;SDS011;11405;51.698;-0.292;2022-07-03T07:28:26;3.95;;;0.63;;
22476;SDS011;11405;51.698;-0.292;2022-07-03T07:30:53;4.60;;;0.75;;
22476;SDS011;11405;51.698;-0.292;2022-07-03T07:33:20;1.60;;;0.60;;
22476;SDS011;11405;51.698;-0.292;2022-07-03T07:35:46;1.67;;;0.55;;
22476;SDS011;11405;51.698;-0.292;2022-07-03T07:38:13;2.55;;;0.65;;
22476;SDS011;11405;51.698;-0.292;2022-07-03T07:40:40;4.45;;;0.52;;
22476;SDS011;11405;51.698;-0.292;2022-07-03T07:43:06;4.45;;;0.90;;
22476;SDS011;11405;51.698;-0.292;2022-07-03T07:45:32;4.38;;;0.80;;
22476;SDS011;11405;51.698;-0.292;2022-07-03T07:47:59;3.67;;;0.63;;
22476;SDS011;11405;51.698;-0.292;2022-07-03T07:50:25;3.30;;;0.63;;
22476;SDS011;11405;51.698;-0.292;2022-07-03T07:52:51;2.20;;;0.60;;
22476;SDS011;11405;51.698;-0.292;2022-07-03T07:55:17;2.22;;;0.60;;
22476;SDS011;11405;51.698;-0.292;2022-07-03T07:57:45;5.00;;;0.80;;
22476;SDS011;11405;51.698;-0.292;2022-07-03T08:02:37;3.58;;;0.63;;
22476;SDS011;11405;51.698;-0.292;2022-07-03T08:05:22;3.05;;;0.73;;
22476;SDS011;11405;51.698;-0.292;2022-07-03T08:08:01;2.70;;;0.70;;
22476;SDS011;11405;51.698;-0.292;2022-07-03T08:10:27;3.65;;;0.80;;
22476;SDS011;11405;51.698;-0.292;2022-07-03T08:12:53;4.57;;;0.77;;
22476;SDS011;11405;51.698;-0.292;2022-07-03T08:15:19;2.45;;;0.60;;
22476;SDS011;11405;51.698;-0.292;2022-07-03T08:17:45;3.97;;;0.63;;
22476;SDS011;11405;51.698;-0.292;2022-07-03T08:20:11;2.50;;;0.88;;
22476;SDS011;11405;51.698;-0.292;2022-07-03T08:22:37;3.42;;;0.40;;
22476;SDS011;11405;51.698;-0.292;2022-07-03T08:25:03;9.48;;;0.75;;
22476;SDS011;11405;51.698;-0.292;2022-07-03T08:27:29;2.13;;;0.40;;
22476;SDS011;11405;51.698;-0.292;2022-07-03T08:29:55;6.93;;;0.88;;
22476;SDS011;11405;51.698;-0.292;2022-07-03T08:32:21;2.92;;;0.50;;
22476;SDS011;11405;51.698;-0.292;2022-07-03T08:34:47;2.28;;;0.47;;
22476;SDS011;11405;51.698;-0.292;2022-07-03T08:37:13;4.80;;;0.70;;
22476;SDS011;11405;51.698;-0.292;2022-07-03T08:39:39;4.60;;;0.52;;
22476;SDS011;11405;51.698;-0.292;2022-07-03T08:42:05;2.72;;;0.70;;
22476;SDS011;11405;51.698;-0.292;2022-07-03T08:44:32;3.13;;;0.45;;
22476;SDS011;11405;51.698;-0.292;2022-07-03T08:46:58;3.50;;;0.50;;
22476;SDS011;11405;51.698;-0.292;2022-07-03T08:49:25;2.08;;;0.63;;
22476;SDS011;11405;51.698;-0.292;2022-07-03T08:51:52;3.35;;;0.70;;
22476;SDS011;11405;51.698;-0.292;2022-07-03T08:54:21;3.28;;;0.50;;
22476;SDS011;11405;51.698;-0.292;2022-07-03T08:56:47;6.63;;;0.60;;
22476;SDS011;11405;51.698;-0.292;2022-07-03T08:59:16;3.03;;;0.60;;
22476;SDS011;11405;51.698;-0.292;2022-07-03T09:01:45;2.40;;;0.65;;
22476;SDS011;11405;51.698;-0.292;2022-07-03T09:04:12;4.15;;;0.80;;
22476;SDS011;11405;51.698;-0.292;2022-07-03T09:06:43;3.67;;;0.50;;
22476;SDS011;11405;51.698;-0.292;2022-07-03T09:09:09;4.85;;;1.13;;
22476;SDS011;11405;51.698;-0.292;2022-07-03T09:11:37;2.60;;;0.43;;
22476;SDS011;11405;51.698;-0.292;2022-07-03T09:14:03;4.47;;;0.47;;
22476;SDS011;11405;51.698;-0.292;2022-07-03T09:16:33;4.57;;;0.75;;
22476;SDS011;11405;51.698;-0.292;2022-07-03T09:19:02;3.60;;;0.70;;
22476;SDS011;11405;51.698;-0.292;2022-07-03T09:24:09;5.07;;;0.70;;
22476;SDS011;11405;51.698;-0.292;2022-07-03T09:26:36;2.40;;;0.55;;
22476;SDS011;11405;51.698;-0.292;2022-07-03T09:29:02;5.90;;;0.80;;
22476;SDS011;11405;51.698;-0.292;2022-07-03T09:31:30;5.90;;;0.52;;
22476;SDS011;11405;51.698;-0.292;2022-07-03T09:34:00;0.30;;;0.30;;
22476;SDS011;11405;51.698;-0.292;2022-07-03T09:39:15;1.88;;;0.32;;
22476;SDS011;11405;51.698;-0.292;2022-07-03T09:41:55;2.67;;;0.60;;
22476;SDS011;11405;51.698;-0.292;2022-07-03T09:44:27;1.02;;;0.40;;
22476;SDS011;11405;51.698;-0.292;2022-07-03T09:49:51;0.95;;;0.65;;
22476;SDS011;11405;51.698;-0.292;2022-07-03T09:52:30;1.63;;;0.52;;
22476;SDS011;11405;51.698;-0.292;2022-07-03T09:57:31;2.50;;;0.60;;
22476;SDS011;11405;51.698;-0.292;2022-07-03T10:03:03;2.22;;;0.70;;
22476;SDS011;11405;51.698;-0.292;2022-07-03T10:05:34;3.13;;;0.93;;
22476;SDS011;11405;51.698;-0.292;2022-07-03T10:08:01;4.05;;;1.50;;
22476;SDS011;11405;51.698;-0.292;2022-07-03T10:10:28;1.63;;;0.80;;
22476;SDS011;11405;51.698;-0.292;2022-07-03T10:12:55;4.78;;;0.80;;
22476;SDS011;11405;51.698;-0.292;2022-07-03T10:15:21;2.67;;;0.82;;
22476;SDS011;11405;51.698;-0.292;2022-07-03T10:20:14;1.15;;;0.70;;
22476;SDS011;11405;51.698;-0.292;2022-07-03T10:22:41;3.75;;;0.82;;
22476;SDS011;11405;51.698;-0.292;2022-07-03T10:27:33;1.60;;;0.70;;
22476;SDS011;11405;51.698;-0.292;2022-07-03T10:30:01;3.90;;;0.95;;
22476;SDS011;11405;51.698;-0.292;2022-07-03T10:32:27;3.80;;;0.70;;
22476;SDS011;11405;51.698;-0.292;2022-07-03T10:34:53;0.98;;;0.90;;
22476;SDS011;11405;51.698;-0.292;2022-07-03T10:37:20;1.92;;;0.80;;
22476;SDS011;11405;51.698;-0.292;2022-07-03T10:42:24;2.70;;;0.88;;
22476;SDS011;11405;51.698;-0.292;2022-07-03T10:45:12;1.02;;;0.43;;
22476;SDS011;11405;51.698;-0.292;2022-07-03T10:47:45;5.28;;;0.80;;
22476;SDS011;11405;51.698;-0.292;2022-07-03T10:50:19;4.00;;;0.60;;
22476;SDS011;11405;51.698;-0.292;2022-07-03T10:52:45;3.13;;;0.60;;
22476;SDS011;11405;51.698;-0.292;2022-07-03T10:55:13;2.65;;;0.60;;
22476;SDS011;11405;51.698;-0.292;2022-07-03T10:57:40;2.67;;;1.10;;
22476;SDS011;11405;51.698;-0.292;2022-07-03T11:00:07;2.10;;;0.88;;
22476;SDS011;11405;51.698;-0.292;2022-07-03T11:02:40;1.05;;;0.80;;
22476;SDS011;11405;51.698;-0.292;2022-07-03T11:05:10;0.88;;;0.70;;
22476;SDS011;11405;51.698;-0.292;2022-07-03T11:12:53;1.90;;;1.00;;
22476;SDS011;11405;51.698;-0.292;2022-07-03T11:20:56;2.63;;;0.65;;
22476;SDS011;11405;51.698;-0.292;2022-07-03T11:25:56;1.95;;;0.60;;
22476;SDS011;11405;51.698;-0.292;2022-07-03T11:38:41;1.40;;;0.40;;
22476;SDS011;11405;51.698;-0.292;2022-07-03T11:41:09;1.63;;;0.40;;
22476;SDS011;11405;51.698;-0.292;2022-07-03T11:43:35;1.73;;;0.50;;
22476;SDS011;11405;51.698;-0.292;2022-07-03T11:46:01;0.60;;;0.40;;
22476;SDS011;11405;51.698;-0.292;2022-07-03T11:48:28;2.03;;;0.47;;
22476;SDS011;11405;51.698;-0.292;2022-07-03T11:50:58;2.78;;;0.52;;
22476;SDS011;11405;51.698;-0.292;2022-07-03T11:53:26;2.25;;;0.38;;
22476;SDS011;11405;51.698;-0.292;2022-07-03T11:55:57;0.75;;;0.40;;
22476;SDS011;11405;51.698;-0.292;2022-07-03T11:58:24;2.05;;;0.35;;
22476;SDS011;11405;51.698;-0.292;2022-07-03T12:00:51;1.52;;;0.40;;
22476;SDS011;11405;51.698;-0.292;2022-07-03T12:03:25;2.17;;;0.50;;
22476;SDS011;11405;51.698;-0.292;2022-07-03T12:05:52;0.70;;;0.50;;
22476;SDS011;11405;51.698;-0.292;2022-07-03T12:08:22;4.63;;;0.50;;
22476;SDS011;11405;51.698;-0.292;2022-07-03T12:10:50;1.52;;;0.40;;
22476;SDS011;11405;51.698;-0.292;2022-07-03T12:13:19;2.28;;;0.50;;
22476;SDS011;11405;51.698;-0.292;2022-07-03T12:15:46;2.67;;;0.47;;
22476;SDS011;11405;51.698;-0.292;2022-07-03T12:18:12;1.95;;;0.52;;
22476;SDS011;11405;51.698;-0.292;2022-07-03T12:20:38;1.38;;;0.40;;
22476;SDS011;11405;51.698;-0.292;2022-07-03T12:23:04;2.83;;;0.43;;
22476;SDS011;11405;51.698;-0.292;2022-07-03T12:25:30;3.03;;;0.65;;
22476;SDS011;11405;51.698;-0.292;2022-07-03T12:27:56;1.52;;;0.60;;
22476;SDS011;11405;51.698;-0.292;2022-07-03T12:30:24;1.13;;;0.52;;
22476;SDS011;11405;51.698;-0.292;2022-07-03T12:32:52;3.80;;;0.90;;
22476;SDS011;11405;51.698;-0.292;2022-07-03T12:35:25;7.30;;;0.68;;
22476;SDS011;11405;51.698;-0.292;2022-07-03T12:37:53;2.45;;;0.55;;
22476;SDS011;11405;51.698;-0.292;2022-07-03T12:40:19;0.65;;;0.38;;
22476;SDS011;11405;51.698;-0.292;2022-07-03T12:42:48;0.50;;;0.30;;
22476;SDS011;11405;51.698;-0.292;2022-07-03T12:45:15;1.15;;;0.30;;
22476;SDS011;11405;51.698;-0.292;2022-07-03T12:47:41;2.08;;;0.50;;
22476;SDS011;11405;51.698;-0.292;2022-07-03T12:50:08;2.30;;;0.40;;
22476;SDS011;11405;51.698;-0.292;2022-07-03T12:52:54;4.00;;;0.40;;
22476;SDS011;11405;51.698;-0.292;2022-07-03T12:55:27;1.75;;;0.38;;
22476;SDS011;11405;51.698;-0.292;2022-07-03T12:58:16;0.85;;;0.30;;
22476;SDS011;11405;51.698;-0.292;2022-07-03T13:01:01;0.85;;;0.40;;
22476;SDS011;11405;51.698;-0.292;2022-07-03T13:03:31;1.48;;;0.40;;
22476;SDS011;11405;51.698;-0.292;2022-07-03T13:05:57;1.63;;;0.52;;
22476;SDS011;11405;51.698;-0.292;2022-07-03T13:08:23;0.93;;;0.77;;
22476;SDS011;11405;51.698;-0.292;2022-07-03T13:10:59;1.52;;;0.40;;
22476;SDS011;11405;51.698;-0.292;2022-07-03T13:13:25;1.13;;;0.20;;
22476;SDS011;11405;51.698;-0.292;2022-07-03T13:15:53;2.92;;;0.28;;
22476;SDS011;11405;51.698;-0.292;2022-07-03T13:18:19;1.75;;;0.40;;
22476;SDS011;11405;51.698;-0.292;2022-07-03T13:20:46;4.57;;;0.50;;
22476;SDS011;11405;51.698;-0.292;2022-07-03T13:23:12;1.85;;;0.30;;
22476;SDS011;11405;51.698;-0.292;2022-07-03T13:25:38;0.77;;;0.40;;
22476;SDS011;11405;51.698;-0.292;2022-07-03T13:28:23;2.03;;;0.30;;
22476;SDS011;11405;51.698;-0.292;2022-07-03T13:30:49;0.88;;;0.45;;
22476;SDS011;11405;51.698;-0.292;2022-07-03T13:33:15;3.20;;;0.38;;
22476;SDS011;11405;51.698;-0.292;2022-07-03T13:35:41;0.95;;;0.75;;
22476;SDS011;11405;51.698;-0.292;2022-07-03T13:38:07;1.98;;;0.40;;
22476;SDS011;11405;51.698;-0.292;2022-07-03T13:40:33;1.30;;;0.40;;
22476;SDS011;11405;51.698;-0.292;2022-07-03T13:43:00;0.50;;;0.40;;
22476;SDS011;11405;51.698;-0.292;2022-07-03T13:45:26;2.53;;;0.40;;
22476;SDS011;11405;51.698;-0.292;2022-07-03T13:47:52;1.60;;;0.30;;
22476;SDS011;11405;51.698;-0.292;2022-07-03T13:50:18;0.95;;;0.30;;
22476;SDS011;11405;51.698;-0.292;2022-07-03T13:52:44;0.55;;;0.30;;
22476;SDS011;11405;51.698;-0.292;2022-07-03T13:55:10;2.15;;;0.40;;
22476;SDS011;11405;51.698;-0.292;2022-07-03T13:57:38;0.47;;;0.40;;
22476;SDS011;11405;51.698;-0.292;2022-07-03T14:00:04;0.68;;;0.20;;
22476;SDS011;11405;51.698;-0.292;2022-07-03T14:02:30;3.97;;;0.40;;
22476;SDS011;11405;51.698;-0.292;2022-07-03T14:04:56;0.38;;;0.10;;
22476;SDS011;11405;51.698;-0.292;2022-07-03T14:07:22;1.75;;;0.30;;
22476;SDS011;11405;51.698;-0.292;2022-07-03T14:09:48;0.22;;;0.22;;
22476;SDS011;11405;51.698;-0.292;2022-07-03T14:12:14;1.80;;;0.60;;
22476;SDS011;11405;51.698;-0.292;2022-07-03T14:14:40;0.63;;;0.30;;
22476;SDS011;11405;51.698;-0.292;2022-07-03T14:17:06;4.78;;;0.40;;
22476;SDS011;11405;51.698;-0.292;2022-07-03T14:19:32;2.00;;;0.28;;
22476;SDS011;11405;51.698;-0.292;2022-07-03T14:21:58;3.67;;;0.47;;
22476;SDS011;11405;51.698;-0.292;2022-07-03T14:24:24;0.45;;;0.20;;
22476;SDS011;11405;51.698;-0.292;2022-07-03T14:26:50;0.57;;;0.20;;
22476;SDS011;11405;51.698;-0.292;2022-07-03T14:29:35;0.50;;;0.30;;
22476;SDS011;11405;51.698;-0.292;2022-07-03T14:32:19;1.15;;;0.20;;
22476;SDS011;11405;51.698;-0.292;2022-07-03T14:34:55;1.27;;;0.30;;
22476;SDS011;11405;51.698;-0.292;2022-07-03T14:37:21;2.20;;;0.40;;
22476;SDS011;11405;51.698;-0.292;2022-07-03T14:39:47;0.47;;;0.30;;
22476;SDS011;11405;51.698;-0.292;2022-07-03T14:42:14;0.10;;;0.10;;
22476;SDS011;11405;51.698;-0.292;2022-07-03T14:44:40;1.98;;;0.30;;
22476;SDS011;11405;51.698;-0.292;2022-07-03T14:47:06;0.20;;;0.10;;
22476;SDS011;11405;51.698;-0.292;2022-07-03T14:49:32;1.40;;;0.22;;
22476;SDS011;11405;51.698;-0.292;2022-07-03T14:52:05;0.82;;;0.20;;
22476;SDS011;11405;51.698;-0.292;2022-07-03T14:54:32;0.75;;;0.25;;
22476;SDS011;11405;51.698;-0.292;2022-07-03T14:56:59;0.63;;;0.28;;
22476;SDS011;11405;51.698;-0.292;2022-07-03T14:59:34;0.50;;;0.10;;
22476;SDS011;11405;51.698;-0.292;2022-07-03T15:02:00;0.47;;;0.25;;
22476;SDS011;11405;51.698;-0.292;2022-07-03T15:04:32;0.90;;;0.28;;
22476;SDS011;11405;51.698;-0.292;2022-07-03T15:07:03;0.77;;;0.20;;
22476;SDS011;11405;51.698;-0.292;2022-07-03T15:09:32;5.88;;;0.40;;
22476;SDS011;11405;51.698;-0.292;2022-07-03T15:11:58;2.47;;;0.30;;
22476;SDS011;11405;51.698;-0.292;2022-07-03T15:14:44;0.73;;;0.30;;
22476;SDS011;11405;51.698;-0.292;2022-07-03T15:17:12;0.68;;;0.30;;
22476;SDS011;11405;51.698;-0.292;2022-07-03T15:19:38;1.25;;;0.43;;
22476;SDS011;11405;51.698;-0.292;2022-07-03T15:22:06;0.25;;;0.20;;
22476;SDS011;11405;51.698;-0.292;2022-07-03T15:24:36;0.38;;;0.17;;
22476;SDS011;11405;51.698;-0.292;2022-07-03T15:27:04;0.28;;;0.20;;
22476;SDS011;11405;51.698;-0.292;2022-07-03T15:29:30;0.43;;;0.25;;
22476;SDS011;11405;51.698;-0.292;2022-07-03T15:32:00;2.38;;;0.28;;
22476;SDS011;11405;51.698;-0.292;2022-07-03T15:34:27;2.03;;;0.30;;
22476;SDS011;11405;51.698;-0.292;2022-07-03T15:39:36;0.77;;;0.38;;
22476;SDS011;11405;51.698;-0.292;2022-07-03T15:45:03;0.47;;;0.20;;
22476;SDS011;11405;51.698;-0.292;2022-07-03T15:47:36;0.87;;;0.30;;
22476;SDS011;11405;51.698;-0.292;2022-07-03T15:50:05;0.77;;;0.30;;
22476;SDS011;11405;51.698;-0.292;2022-07-03T15:52:31;1.73;;;0.47;;
22476;SDS011;11405;51.698;-0.292;2022-07-03T15:59:53;1.85;;;0.80;;
22476;SDS011;11405;51.698;-0.292;2022-07-03T16:02:25;0.65;;;0.28;;
22476;SDS011;11405;51.698;-0.292;2022-07-03T16:07:20;0.20;;;0.20;;
22476;SDS011;11405;51.698;-0.292;2022-07-03T16:09:48;2.30;;;0.40;;
22476;SDS011;11405;51.698;-0.292;2022-07-03T16:12:15;2.17;;;0.40;;
22476;SDS011;11405;51.698;-0.292;2022-07-03T16:14:46;6.40;;;0.70;;
22476;SDS011;11405;51.698;-0.292;2022-07-03T16:17:13;0.98;;;0.35;;